createdAt,value
2022-09-16T00:00:30.762Z,71.50
2022-09-16T00:02:12.626Z,71.70
2022-09-16T00:04:00.065Z,71.50
2022-09-16T00:05:42.362Z,72.00
2022-09-16T00:07:24.469Z,72.10
2022-09-16T00:09:06.239Z,72.50
2022-09-16T00:10:48.380Z,72.60
2022-09-16T00:12:30.177Z,72.70
2022-09-16T00:14:12.057Z,72.50
2022-09-16T00:15:53.914Z,72.90
2022-09-16T00:17:36.063Z,72.90
2022-09-16T00:19:19.093Z,73.00
2022-09-16T00:21:00.891Z,73.00
2022-09-16T00:22:42.832Z,73.20
2022-09-16T00:24:24.912Z,72.80
2022-09-16T00:26:06.507Z,73.50
2022-09-16T00:27:51.338Z,73.50
2022-09-16T00:29:33.247Z,73.50
2022-09-16T00:31:15.372Z,73.50
2022-09-16T00:32:57.311Z,73.70
2022-09-16T00:34:40.743Z,73.20
2022-09-16T00:36:22.505Z,74.00
2022-09-16T00:38:04.498Z,74.10
2022-09-16T00:39:47.397Z,74.20
2022-09-16T00:41:31.318Z,74.20
2022-09-16T00:43:13.988Z,74.10
2022-09-16T00:44:59.085Z,73.60
2022-09-16T00:46:44.144Z,74.30
2022-09-16T00:48:28.708Z,74.50
2022-09-16T00:50:16.840Z,74.60
2022-09-16T00:52:04.781Z,74.60
2022-09-16T00:53:52.266Z,74.10
2022-09-16T00:55:37.765Z,74.70
2022-09-16T00:57:19.611Z,74.80
2022-09-16T00:59:06.038Z,74.90
2022-09-16T01:00:49.164Z,74.90
2022-09-16T01:02:31.379Z,75.00
2022-09-16T01:04:17.918Z,74.40
2022-09-16T01:06:01.159Z,75.00
2022-09-16T01:07:45.968Z,75.00
2022-09-16T01:09:29.633Z,75.00
2022-09-16T01:11:11.735Z,75.00
2022-09-16T01:12:55.500Z,75.00
2022-09-16T01:14:37.425Z,74.40
2022-09-16T01:16:23.607Z,75.00
2022-09-16T01:18:13.274Z,75.20
2022-09-16T01:20:30.937Z,75.30
2022-09-16T01:22:34.351Z,75.30
2022-09-16T01:24:51.681Z,74.80
2022-09-16T01:27:05.064Z,76.00
2022-09-16T01:29:12.445Z,75.40
2022-09-16T01:31:04.537Z,75.40
2022-09-16T01:33:00.047Z,75.40
2022-09-16T01:34:50.290Z,74.90
2022-09-16T01:36:41.055Z,75.40
2022-09-16T01:38:35.097Z,75.60
2022-09-16T01:40:24.346Z,75.60
2022-09-16T01:42:20.875Z,75.60
2022-09-16T01:44:10.102Z,75.00
2022-09-16T01:45:55.927Z,75.60
2022-09-16T01:47:49.357Z,75.10
2022-09-16T01:49:42.369Z,75.60
2022-09-16T01:51:31.753Z,75.70
2022-09-16T01:53:17.926Z,75.70
2022-09-16T01:55:02.587Z,75.10
2022-09-16T01:57:04.612Z,75.80
2022-09-16T01:58:51.544Z,75.80
2022-09-16T02:00:33.912Z,75.80
2022-09-16T02:02:20.633Z,75.30
2022-09-16T02:04:09.055Z,75.20
2022-09-16T02:05:54.364Z,75.80
2022-09-16T02:07:41.879Z,75.90
2022-09-16T02:09:27.476Z,76.00
2022-09-16T02:11:12.332Z,76.10
2022-09-16T02:12:59.234Z,76.10
2022-09-16T02:14:44.578Z,75.40
2022-09-16T02:16:30.492Z,76.50
2022-09-16T02:18:16.909Z,76.10
2022-09-16T02:20:02.799Z,76.20
2022-09-16T02:21:46.866Z,76.20
2022-09-16T02:23:32.891Z,75.60
2022-09-16T02:25:18.125Z,75.50
2022-09-16T02:27:04.035Z,76.10
2022-09-16T02:28:49.946Z,76.10
2022-09-16T02:30:32.427Z,76.20
2022-09-16T02:32:15.579Z,76.10
2022-09-16T02:34:02.708Z,75.60
2022-09-16T02:35:50.715Z,76.20
2022-09-16T02:37:37.410Z,76.20
2022-09-16T02:39:26.505Z,76.20
2022-09-16T02:41:08.975Z,76.20
2022-09-16T02:42:51.009Z,76.20
2022-09-16T02:44:32.909Z,75.70
2022-09-16T02:46:24.006Z,76.20
2022-09-16T02:48:14.003Z,76.20
2022-09-16T02:50:00.598Z,76.30
2022-09-16T02:51:54.070Z,76.30
2022-09-16T02:53:42.899Z,75.80
2022-09-16T02:55:34.292Z,76.30
2022-09-16T02:57:16.415Z,76.30
2022-09-16T02:58:58.572Z,76.30
2022-09-16T03:00:45.755Z,76.40
2022-09-16T03:02:27.558Z,76.40
2022-09-16T03:04:10.170Z,75.90
2022-09-16T03:06:16.509Z,76.40
2022-09-16T03:08:00.478Z,76.50
2022-09-16T03:09:45.697Z,76.50
2022-09-16T03:11:55.807Z,76.40
2022-09-16T03:13:50.514Z,75.90
2022-09-16T03:15:54.907Z,76.50
2022-09-16T03:17:50.204Z,76.40
2022-09-16T03:19:38.851Z,76.40
2022-09-16T03:21:32.329Z,76.50
2022-09-16T03:23:26.732Z,76.50
2022-09-16T03:25:20.418Z,75.90
2022-09-16T03:27:08.169Z,76.50
2022-09-16T03:29:02.438Z,76.50
2022-09-16T03:30:51.432Z,76.30
2022-09-16T03:32:37.617Z,76.40
2022-09-16T03:34:24.126Z,76.00
2022-09-16T03:36:08.577Z,76.50
2022-09-16T03:37:51.623Z,76.50
2022-09-16T03:39:35.254Z,76.50
2022-09-16T03:41:17.704Z,76.50
2022-09-16T03:42:59.566Z,76.50
2022-09-16T03:44:41.398Z,76.00
2022-09-16T03:46:23.603Z,76.60
2022-09-16T03:48:05.661Z,76.60
2022-09-16T03:49:47.330Z,76.50
2022-09-16T03:51:29.305Z,76.50
2022-09-16T03:53:10.999Z,76.60
2022-09-16T03:54:54.460Z,76.10
2022-09-16T03:56:36.281Z,76.50
2022-09-16T03:58:18.146Z,76.60
2022-09-16T04:00:00.299Z,76.60
2022-09-16T04:01:42.044Z,76.70
2022-09-16T04:03:23.907Z,76.70
2022-09-16T04:05:06.810Z,76.20
2022-09-16T04:06:48.632Z,76.80
2022-09-16T04:08:30.455Z,76.70
2022-09-16T04:10:13.658Z,76.80
2022-09-16T04:11:55.365Z,76.70
2022-09-16T04:13:37.112Z,76.30
2022-09-16T04:15:18.871Z,76.80
2022-09-16T04:17:01.077Z,76.60
2022-09-16T04:18:42.841Z,76.20
2022-09-16T04:20:27.588Z,76.70
2022-09-16T04:22:09.396Z,76.70
2022-09-16T04:23:51.590Z,76.10
2022-09-16T04:25:34.753Z,76.80
2022-09-16T04:27:16.596Z,76.80
2022-09-16T04:29:00.487Z,76.70
2022-09-16T04:30:42.357Z,76.80
2022-09-16T04:32:25.458Z,76.80
2022-09-16T04:34:07.228Z,76.30
2022-09-16T04:35:49.166Z,76.80
2022-09-16T04:37:31.013Z,76.80
2022-09-16T04:39:13.130Z,76.80
2022-09-16T04:41:01.594Z,76.80
2022-09-16T04:42:48.932Z,76.80
2022-09-16T04:44:30.915Z,76.30
2022-09-16T04:46:13.409Z,76.80
2022-09-16T04:47:56.745Z,76.80
2022-09-16T04:49:38.461Z,76.90
2022-09-16T04:51:21.246Z,76.80
2022-09-16T04:53:02.977Z,76.90
2022-09-16T04:54:44.826Z,76.40
2022-09-16T04:56:31.020Z,77.00
2022-09-16T04:58:12.884Z,76.90
2022-09-16T04:59:54.698Z,76.90
2022-09-16T05:01:38.938Z,76.80
2022-09-16T05:03:20.864Z,76.80
2022-09-16T05:05:11.748Z,76.30
2022-09-16T05:09:03.567Z,76.90
2022-09-16T05:10:48.200Z,76.80
2022-09-16T05:12:31.399Z,76.80
2022-09-16T05:14:15.678Z,76.30
2022-09-16T05:16:01.852Z,76.90
2022-09-16T05:17:51.882Z,76.80
2022-09-16T05:19:33.911Z,76.80
2022-09-16T05:21:17.864Z,76.80
2022-09-16T05:22:59.787Z,76.80
2022-09-16T05:24:41.608Z,76.20
2022-09-16T05:26:25.463Z,76.90
2022-09-16T05:28:08.731Z,76.90
2022-09-16T05:29:50.504Z,76.90
2022-09-16T05:31:33.755Z,77.00
2022-09-16T05:33:15.572Z,76.50
2022-09-16T05:34:57.314Z,76.40
2022-09-16T05:36:39.498Z,76.90
2022-09-16T05:38:21.218Z,77.00
2022-09-16T05:40:03.368Z,77.00
2022-09-16T05:41:45.119Z,77.10
2022-09-16T05:43:28.459Z,77.00
2022-09-16T05:45:10.867Z,76.40
2022-09-16T05:46:52.689Z,76.90
2022-09-16T05:48:35.141Z,77.00
2022-09-16T05:50:16.905Z,76.90
2022-09-16T05:51:58.651Z,77.10
2022-09-16T05:53:40.399Z,77.10
2022-09-16T05:55:22.144Z,76.60
2022-09-16T05:57:06.977Z,77.10
2022-09-16T05:58:52.230Z,77.10
2022-09-16T06:00:34.046Z,77.10
2022-09-16T06:02:15.774Z,77.10
2022-09-16T06:03:57.885Z,76.60
2022-09-16T06:05:45.015Z,77.10
2022-09-16T06:07:27.451Z,77.10
2022-09-16T06:09:11.025Z,77.10
2022-09-16T06:10:53.050Z,77.10
2022-09-16T06:12:34.642Z,77.10
2022-09-16T06:14:19.086Z,76.50
2022-09-16T06:16:02.030Z,77.10
2022-09-16T06:17:43.776Z,77.10
2022-09-16T06:19:25.485Z,77.10
2022-09-16T06:21:09.534Z,77.70
2022-09-16T06:22:51.247Z,77.10
2022-09-16T06:24:32.964Z,76.50
2022-09-16T06:26:16.553Z,77.10
2022-09-16T06:27:58.251Z,77.10
2022-09-16T06:29:41.307Z,77.10
2022-09-16T06:31:24.670Z,77.00
2022-09-16T06:33:06.783Z,77.00
2022-09-16T06:34:48.353Z,76.50
2022-09-16T06:36:31.419Z,77.00
2022-09-16T06:38:13.138Z,77.10
2022-09-16T06:39:54.933Z,77.10
2022-09-16T06:41:36.736Z,77.10
2022-09-16T06:43:18.468Z,77.00
2022-09-16T06:45:01.550Z,76.40
2022-09-16T06:46:43.311Z,77.00
2022-09-16T06:48:25.394Z,77.00
2022-09-16T06:50:07.201Z,77.00
2022-09-16T06:51:48.954Z,77.10
2022-09-16T06:53:31.249Z,76.90
2022-09-16T06:55:12.988Z,76.50
2022-09-16T06:56:54.726Z,77.00
2022-09-16T06:58:37.248Z,77.00
2022-09-16T07:00:20.548Z,77.00
2022-09-16T07:02:02.620Z,77.00
2022-09-16T07:03:46.956Z,77.00
2022-09-16T07:05:28.734Z,76.40
2022-09-16T07:07:11.199Z,77.10
2022-09-16T07:08:54.746Z,77.00
2022-09-16T07:10:36.496Z,76.90
2022-09-16T07:12:19.766Z,77.00
2022-09-16T07:14:01.634Z,76.40
2022-09-16T07:16:09.256Z,76.90
2022-09-16T07:17:46.442Z,77.00
2022-09-16T07:19:28.520Z,76.90
2022-09-16T07:21:12.026Z,76.90
2022-09-16T07:22:53.840Z,76.90
2022-09-16T07:24:35.577Z,76.50
2022-09-16T07:26:18.778Z,77.10
2022-09-16T07:28:00.498Z,77.10
2022-09-16T07:29:42.225Z,77.00
2022-09-16T07:31:27.187Z,77.10
2022-09-16T07:33:08.949Z,77.10
2022-09-16T07:34:50.668Z,76.30
2022-09-16T07:36:34.433Z,77.10
2022-09-16T07:38:16.317Z,76.90
2022-09-16T07:39:58.087Z,76.50
2022-09-16T07:41:41.651Z,77.10
2022-09-16T07:43:23.504Z,76.80
2022-09-16T07:45:06.721Z,76.40
2022-09-16T07:46:49.796Z,77.10
2022-09-16T07:48:34.809Z,77.10
2022-09-16T07:50:17.280Z,77.10
2022-09-16T07:51:59.016Z,77.10
2022-09-16T07:53:41.274Z,77.10
2022-09-16T07:55:23.033Z,76.50
2022-09-16T07:57:04.872Z,76.50
2022-09-16T07:58:47.911Z,77.10
2022-09-16T08:00:29.618Z,77.10
2022-09-16T08:02:12.761Z,76.30
2022-09-16T08:03:56.121Z,76.40
2022-09-16T08:05:37.913Z,76.90
2022-09-16T08:07:19.666Z,77.10
2022-09-16T08:09:10.565Z,77.00
2022-09-16T08:11:04.502Z,77.10
2022-09-16T08:12:47.354Z,77.10
2022-09-16T08:14:29.215Z,76.50
2022-09-16T08:16:13.066Z,77.00
2022-09-16T08:17:56.243Z,77.00
2022-09-16T08:19:37.994Z,77.10
2022-09-16T08:21:22.120Z,77.10
2022-09-16T08:23:03.901Z,77.10
2022-09-16T08:24:45.662Z,76.70
2022-09-16T08:26:27.366Z,76.50
2022-09-16T08:28:13.233Z,77.10
2022-09-16T08:29:54.984Z,77.00
2022-09-16T08:31:37.193Z,77.00
2022-09-16T08:33:20.774Z,77.00
2022-09-16T08:35:02.641Z,67.00
2022-09-16T08:36:44.517Z,68.20
2022-09-16T08:38:26.398Z,67.40
2022-09-16T08:40:14.480Z,68.70
2022-09-16T08:42:16.096Z,67.70
2022-09-16T08:44:06.503Z,66.70
2022-09-16T08:45:54.303Z,67.20
2022-09-16T08:47:46.231Z,67.20
2022-09-16T08:49:35.083Z,68.70
2022-09-16T08:51:20.080Z,68.90
2022-09-16T08:53:07.224Z,68.90
2022-09-16T08:54:53.104Z,68.70
2022-09-16T08:56:35.109Z,69.80
2022-09-16T08:58:19.482Z,70.30
2022-09-16T09:00:04.701Z,70.70
2022-09-16T09:01:50.950Z,71.00
2022-09-16T09:03:38.073Z,70.80
2022-09-16T09:05:27.167Z,70.50
2022-09-16T09:07:16.607Z,71.10
2022-09-16T09:09:05.517Z,72.90
2022-09-16T09:10:51.279Z,71.30
2022-09-16T09:12:40.253Z,71.50
2022-09-16T09:14:35.485Z,71.10
2022-09-16T09:16:26.873Z,71.10
2022-09-16T09:18:19.983Z,70.90
2022-09-16T09:20:15.861Z,71.80
2022-09-16T09:22:09.975Z,71.70
2022-09-16T09:24:23.647Z,71.50
2022-09-16T09:26:12.666Z,72.10
2022-09-16T09:28:06.359Z,72.30
2022-09-16T09:29:57.875Z,72.30
2022-09-16T09:31:47.787Z,72.50
2022-09-16T09:33:46.629Z,72.60
2022-09-16T09:35:48.223Z,72.00
2022-09-16T09:37:44.030Z,72.70
2022-09-16T09:39:40.574Z,72.90
2022-09-16T09:41:28.072Z,72.90
2022-09-16T09:43:16.016Z,73.10
2022-09-16T09:45:02.601Z,72.50
2022-09-16T09:46:48.142Z,72.60
2022-09-16T09:48:33.883Z,73.20
2022-09-16T09:50:19.758Z,73.20
2022-09-16T09:52:07.651Z,72.80
2022-09-16T09:53:53.610Z,72.80
2022-09-16T09:55:35.899Z,72.80
2022-09-16T09:57:27.186Z,73.00
2022-09-16T09:59:17.888Z,73.50
2022-09-16T10:02:47.451Z,72.90
2022-09-16T10:04:37.469Z,73.00
2022-09-16T10:06:25.450Z,73.70
2022-09-16T10:08:16.775Z,72.90
2022-09-16T10:10:11.950Z,68.70
2022-09-16T10:11:55.367Z,67.00
2022-09-16T10:13:48.514Z,67.10
2022-09-16T10:15:31.360Z,66.90
2022-09-16T10:17:16.780Z,69.00
2022-09-16T10:19:02.894Z,68.90
2022-09-16T10:20:54.080Z,67.60
2022-09-16T10:22:35.812Z,67.20
2022-09-16T10:24:39.356Z,66.80
2022-09-16T10:26:24.469Z,67.40
2022-09-16T10:28:17.661Z,67.10
2022-09-16T10:30:14.283Z,67.50
2022-09-16T10:31:56.285Z,68.00
2022-09-16T10:33:44.621Z,68.20
2022-09-16T10:35:28.340Z,67.30
2022-09-16T10:37:17.443Z,67.70
2022-09-16T10:39:04.382Z,67.70
2022-09-16T10:40:52.378Z,67.80
2022-09-16T10:42:36.207Z,67.70
2022-09-16T10:44:23.578Z,66.50
2022-09-16T10:46:06.127Z,67.30
2022-09-16T10:47:50.981Z,67.60
2022-09-16T10:49:38.964Z,68.30
2022-09-16T10:51:24.202Z,68.80
2022-09-16T10:53:22.041Z,69.30
2022-09-16T10:55:20.072Z,68.70
2022-09-16T10:57:01.850Z,69.20
2022-09-16T10:58:44.921Z,69.20
2022-09-16T11:00:33.653Z,69.30
2022-09-16T11:02:30.242Z,69.20
2022-09-16T11:04:40.569Z,68.50
2022-09-16T11:06:38.237Z,69.00
2022-09-16T11:08:37.729Z,69.10
2022-09-16T11:10:28.714Z,69.00
2022-09-16T11:12:34.983Z,69.30
2022-09-16T11:14:32.914Z,68.80
2022-09-16T11:16:30.784Z,69.40
2022-09-16T11:18:31.119Z,69.50
2022-09-16T11:20:37.012Z,69.60
2022-09-16T11:22:28.479Z,69.70
2022-09-16T11:24:50.041Z,69.40
2022-09-16T11:26:40.260Z,70.00
2022-09-16T11:28:47.281Z,70.00
2022-09-16T11:30:37.283Z,70.00
2022-09-16T11:32:29.359Z,70.10
2022-09-16T11:34:20.698Z,69.60
2022-09-16T11:36:17.909Z,69.60
2022-09-16T11:38:06.930Z,70.20
2022-09-16T11:40:03.401Z,70.20
2022-09-16T11:41:50.549Z,70.30
2022-09-16T11:43:53.155Z,70.40
2022-09-16T11:45:42.512Z,69.90
2022-09-16T11:47:40.666Z,70.50
2022-09-16T11:49:39.577Z,70.50
2022-09-16T11:51:34.575Z,70.60
2022-09-16T11:53:47.186Z,70.60
2022-09-16T11:55:53.106Z,70.10
2022-09-16T11:57:38.262Z,70.70
2022-09-16T11:59:25.309Z,70.70
2022-09-16T12:03:06.812Z,70.80
2022-09-16T12:04:58.474Z,70.30
2022-09-16T12:06:46.229Z,70.90
2022-09-16T12:08:31.393Z,70.90
2022-09-16T12:10:17.627Z,70.90
2022-09-16T12:12:09.649Z,71.00
2022-09-16T12:14:05.550Z,71.00
2022-09-16T12:15:50.397Z,70.50
2022-09-16T12:17:37.084Z,71.10
2022-09-16T12:19:22.535Z,71.10
2022-09-16T12:21:09.746Z,71.20
2022-09-16T12:22:55.940Z,71.20
2022-09-16T12:24:46.997Z,70.80
2022-09-16T12:26:33.792Z,71.40
2022-09-16T12:28:20.518Z,71.40
2022-09-16T12:30:05.098Z,71.50
2022-09-16T12:31:50.795Z,71.50
2022-09-16T12:33:38.800Z,71.60
2022-09-16T12:35:26.164Z,71.20
2022-09-16T12:37:30.855Z,71.70
2022-09-16T12:39:13.154Z,71.80
2022-09-16T12:41:10.914Z,71.90
2022-09-16T12:43:26.973Z,71.90
2022-09-16T12:45:27.393Z,71.30
2022-09-16T12:47:40.925Z,71.90
2022-09-16T12:49:38.905Z,71.50
2022-09-16T12:51:45.846Z,72.10
2022-09-16T12:53:56.887Z,72.20
2022-09-16T12:55:52.508Z,71.70
2022-09-16T12:57:46.592Z,72.30
2022-09-16T12:59:55.659Z,72.30
2022-09-16T13:01:43.083Z,72.30
2022-09-16T13:03:28.033Z,72.30
2022-09-16T13:05:18.495Z,71.90
2022-09-16T13:07:00.404Z,72.30
2022-09-16T13:08:42.569Z,72.30
2022-09-16T13:10:54.053Z,72.30
2022-09-16T13:12:43.107Z,72.50
2022-09-16T13:14:28.613Z,72.60
2022-09-16T13:16:10.695Z,71.90
2022-09-16T13:17:52.628Z,72.50
2022-09-16T13:19:45.254Z,72.60
2022-09-16T13:21:37.592Z,72.60
2022-09-16T13:23:20.740Z,72.80
2022-09-16T13:25:12.434Z,72.20
2022-09-16T13:26:54.225Z,72.80
2022-09-16T13:28:37.725Z,72.90
2022-09-16T13:30:32.769Z,73.40
2022-09-16T13:32:28.316Z,72.80
2022-09-16T13:34:16.385Z,72.80
2022-09-16T13:36:33.113Z,72.20
2022-09-16T13:38:35.075Z,72.90
2022-09-16T13:40:18.869Z,72.80
2022-09-16T13:42:10.671Z,72.90
2022-09-16T13:43:53.341Z,73.00
2022-09-16T13:45:37.732Z,72.50
2022-09-16T13:47:31.645Z,73.00
2022-09-16T13:49:20.460Z,73.00
2022-09-16T13:51:08.750Z,73.00
2022-09-16T13:52:52.078Z,68.40
2022-09-16T13:55:06.256Z,67.70
2022-09-16T13:56:55.314Z,66.90
2022-09-16T13:58:41.498Z,69.00
2022-09-16T14:00:24.943Z,67.80
2022-09-16T14:02:15.261Z,67.40
2022-09-16T14:04:00.998Z,67.10
2022-09-16T14:05:59.915Z,65.90
2022-09-16T14:07:50.226Z,67.30
2022-09-16T14:09:55.398Z,64.10
2022-09-16T14:11:43.157Z,61.10
2022-09-16T14:13:31.379Z,60.20
2022-09-16T14:15:14.412Z,59.50
2022-09-16T14:16:56.234Z,57.20
2022-09-16T14:18:44.363Z,61.00
2022-09-16T14:20:26.920Z,58.00
2022-09-16T14:22:14.735Z,58.60
2022-09-16T14:24:08.411Z,60.10
2022-09-16T14:25:55.264Z,57.20
2022-09-16T14:27:37.416Z,59.10
2022-09-16T14:29:49.289Z,59.30
2022-09-16T14:31:33.315Z,58.20
2022-09-16T14:33:15.980Z,54.20
2022-09-16T14:35:01.044Z,53.90
2022-09-16T14:36:45.820Z,54.70
2022-09-16T14:38:45.705Z,55.80
2022-09-16T14:40:29.247Z,59.10
2022-09-16T14:42:20.451Z,63.60
2022-09-16T14:44:08.963Z,64.20
2022-09-16T14:45:54.160Z,62.70
2022-09-16T14:47:56.636Z,62.70
2022-09-16T14:50:21.467Z,63.20
2022-09-16T14:54:13.159Z,63.00
2022-09-16T14:56:16.674Z,63.30
2022-09-16T14:58:00.299Z,63.50
2022-09-16T14:59:48.329Z,64.30
2022-09-16T15:01:35.841Z,64.10
2022-09-16T15:03:23.554Z,64.40
2022-09-16T15:05:16.352Z,64.90
2022-09-16T15:07:12.436Z,65.00
2022-09-16T15:09:00.900Z,65.80
2022-09-16T15:10:54.199Z,66.00
2022-09-16T15:12:55.211Z,66.40
2022-09-16T15:14:44.596Z,66.30
2022-09-16T15:16:27.246Z,66.90
2022-09-16T15:18:22.823Z,66.80
2022-09-16T15:20:05.129Z,67.40
2022-09-16T15:21:47.794Z,67.60
2022-09-16T15:23:30.669Z,67.70
2022-09-16T15:25:20.515Z,67.50
2022-09-16T15:27:03.418Z,68.10
2022-09-16T15:28:56.401Z,68.20
2022-09-16T15:30:46.087Z,68.40
2022-09-16T15:32:29.475Z,68.50
2022-09-16T15:34:21.796Z,68.60
2022-09-16T15:36:04.115Z,68.20
2022-09-16T15:37:47.111Z,68.90
2022-09-16T15:39:31.589Z,69.70
2022-09-16T15:41:13.752Z,69.20
2022-09-16T15:43:14.437Z,69.30
2022-09-16T15:44:58.453Z,68.90
2022-09-16T15:46:45.967Z,69.40
2022-09-16T15:48:32.208Z,69.60
2022-09-16T15:50:17.937Z,69.60
2022-09-16T15:52:08.060Z,69.30
2022-09-16T15:53:51.331Z,69.80
2022-09-16T15:55:38.025Z,69.30
2022-09-16T15:57:29.661Z,70.10
2022-09-16T15:59:24.186Z,70.20
2022-09-16T16:01:12.053Z,70.40
2022-09-16T16:02:57.233Z,70.80
2022-09-16T16:04:39.130Z,71.00
2022-09-16T16:06:21.930Z,70.40
2022-09-16T16:08:09.617Z,71.20
2022-09-16T16:09:51.994Z,72.00
2022-09-16T16:11:33.784Z,61.30
2022-09-16T16:13:15.553Z,58.20
2022-09-16T16:14:57.667Z,57.20
2022-09-16T16:16:55.487Z,57.20
2022-09-16T16:18:43.911Z,57.80
2022-09-16T16:20:26.563Z,59.90
2022-09-16T16:22:09.344Z,62.60
2022-09-16T16:23:51.430Z,64.40
2022-09-16T16:25:33.233Z,66.00
2022-09-16T16:27:14.990Z,67.00
2022-09-16T16:28:56.703Z,67.00
2022-09-16T16:30:38.646Z,67.40
2022-09-16T16:32:20.363Z,67.30
2022-09-16T16:34:04.606Z,67.80
2022-09-16T16:35:46.546Z,67.70
2022-09-16T16:37:45.442Z,68.60
2022-09-16T16:39:28.029Z,68.60
2022-09-16T16:41:10.271Z,68.80
2022-09-16T16:42:52.116Z,69.20
2022-09-16T16:44:34.786Z,69.50
2022-09-16T16:46:20.041Z,68.50
2022-09-16T16:48:02.117Z,69.60
2022-09-16T16:49:48.364Z,69.80
2022-09-16T16:51:33.235Z,69.80
2022-09-16T16:53:14.979Z,70.00
2022-09-16T16:54:56.780Z,69.70
2022-09-16T16:56:38.870Z,70.30
2022-09-16T16:58:20.444Z,70.20
2022-09-16T17:00:02.790Z,70.20
2022-09-16T17:01:48.780Z,70.60
2022-09-16T17:03:30.891Z,70.50
2022-09-16T17:05:14.367Z,70.10
2022-09-16T17:07:21.330Z,70.70
2022-09-16T17:08:58.942Z,70.70
2022-09-16T17:10:40.702Z,70.60
2022-09-16T17:12:22.521Z,70.60
2022-09-16T17:14:06.070Z,70.60
2022-09-16T17:15:47.896Z,70.10
2022-09-16T17:17:31.926Z,70.70
2022-09-16T17:19:14.767Z,70.70
2022-09-16T17:21:02.791Z,70.70
2022-09-16T17:22:44.578Z,70.80
2022-09-16T17:24:26.401Z,70.80
2022-09-16T17:26:08.946Z,70.20
2022-09-16T17:27:50.725Z,70.90
2022-09-16T17:29:32.477Z,70.90
2022-09-16T17:31:16.730Z,70.80
2022-09-16T17:32:58.529Z,71.00
2022-09-16T17:34:40.256Z,70.90
2022-09-16T17:36:24.340Z,70.40
2022-09-16T17:38:07.134Z,71.00
2022-09-16T17:39:48.975Z,71.00
2022-09-16T17:41:31.601Z,71.00
2022-09-16T17:43:13.579Z,71.10
2022-09-16T17:44:55.278Z,71.20
2022-09-16T17:46:38.518Z,70.60
2022-09-16T17:48:20.900Z,71.30
2022-09-16T17:50:02.634Z,71.20
2022-09-16T17:51:46.107Z,71.20
2022-09-16T17:53:27.851Z,71.30
2022-09-16T17:55:09.776Z,70.80
2022-09-16T17:56:51.550Z,71.30
2022-09-16T17:58:34.330Z,71.30
2022-09-16T18:00:16.675Z,71.40
2022-09-16T18:01:58.401Z,71.40
2022-09-16T18:03:42.230Z,71.50
2022-09-16T18:05:29.303Z,70.90
2022-09-16T18:07:13.121Z,71.50
2022-09-16T18:08:55.319Z,71.50
2022-09-16T18:10:37.053Z,71.50
2022-09-16T18:12:18.799Z,71.50
2022-09-16T18:14:02.093Z,71.60
2022-09-16T18:15:43.881Z,70.80
2022-09-16T18:17:25.630Z,71.60
2022-09-16T18:19:08.032Z,71.60
2022-09-16T18:20:53.915Z,71.10
2022-09-16T18:22:36.993Z,71.70
2022-09-16T18:24:19.038Z,71.60
2022-09-16T18:26:04.094Z,71.10
2022-09-16T18:27:45.956Z,71.20
2022-09-16T18:29:27.745Z,71.80
2022-09-16T18:31:11.566Z,71.40
2022-09-16T18:32:53.409Z,72.00
2022-09-16T18:34:35.166Z,72.00
2022-09-16T18:36:16.871Z,71.40
2022-09-16T18:37:59.978Z,72.00
2022-09-16T18:39:41.893Z,71.90
2022-09-16T18:41:25.425Z,71.90
2022-09-16T18:43:07.146Z,71.90
2022-09-16T18:44:49.185Z,72.20
2022-09-16T18:46:32.785Z,71.40
2022-09-16T18:48:14.566Z,72.00
2022-09-16T18:49:56.477Z,72.20
2022-09-16T18:51:40.326Z,72.20
2022-09-16T18:53:23.425Z,72.20
2022-09-16T18:56:47.760Z,71.80
2022-09-16T18:58:30.105Z,72.30
2022-09-16T19:00:12.819Z,72.20
2022-09-16T19:01:56.622Z,72.20
2022-09-16T19:03:38.396Z,72.20
2022-09-16T19:05:20.199Z,71.80
2022-09-16T19:07:03.955Z,72.30
2022-09-16T19:08:48.075Z,72.20
2022-09-16T19:10:29.829Z,72.40
2022-09-16T19:12:12.915Z,72.40
2022-09-16T19:13:55.000Z,72.40
2022-09-16T19:15:36.574Z,71.90
2022-09-16T19:17:18.414Z,72.40
2022-09-16T19:19:00.242Z,72.40
2022-09-16T19:20:43.618Z,72.30
2022-09-16T19:22:25.338Z,72.50
2022-09-16T19:24:13.096Z,72.50
2022-09-16T19:26:01.302Z,72.00
2022-09-16T19:27:43.040Z,72.50
2022-09-16T19:29:24.894Z,72.60
2022-09-16T19:31:09.502Z,72.50
2022-09-16T19:32:51.299Z,72.50
2022-09-16T19:34:33.065Z,72.50
2022-09-16T19:36:17.046Z,72.00
2022-09-16T19:37:59.566Z,72.50
2022-09-16T19:39:42.611Z,72.50
2022-09-16T19:41:26.788Z,72.50
2022-09-16T19:43:08.517Z,72.70
2022-09-16T19:44:50.227Z,72.50
2022-09-16T19:46:35.262Z,72.00
2022-09-16T19:48:16.991Z,72.60
2022-09-16T19:49:58.694Z,73.20
2022-09-16T19:51:40.442Z,72.70
2022-09-16T19:53:22.154Z,72.70
2022-09-16T19:56:50.761Z,72.20
2022-09-16T19:58:34.348Z,72.70
2022-09-16T20:00:16.198Z,72.60
2022-09-16T20:01:57.988Z,72.80
2022-09-16T20:03:41.271Z,72.70
2022-09-16T20:05:23.062Z,72.20
2022-09-16T20:07:04.870Z,72.70
2022-09-16T20:08:49.127Z,72.80
2022-09-16T20:10:32.599Z,72.70
2022-09-16T20:12:14.366Z,72.70
2022-09-16T20:13:57.940Z,72.60
2022-09-16T20:15:39.648Z,72.10
2022-09-16T20:17:21.383Z,72.70
2022-09-16T20:19:03.567Z,65.90
2022-09-16T20:21:04.896Z,66.10
2022-09-16T20:22:46.618Z,66.80
2022-09-16T20:24:28.432Z,68.70
2022-09-16T20:26:12.779Z,70.10
2022-09-16T20:27:54.532Z,71.00
2022-09-16T20:29:36.250Z,71.00
2022-09-16T20:31:20.143Z,70.90
2022-09-16T20:33:01.910Z,70.90
2022-09-16T20:34:43.650Z,70.90
2022-09-16T20:36:27.566Z,70.40
2022-09-16T20:38:09.307Z,71.00
2022-09-16T20:39:51.069Z,71.00
2022-09-16T20:41:35.448Z,71.10
2022-09-16T20:43:17.710Z,71.50
2022-09-16T20:44:59.413Z,71.10
2022-09-16T20:46:41.251Z,70.60
2022-09-16T20:48:23.246Z,71.20
2022-09-16T20:50:05.786Z,71.20
2022-09-16T20:51:47.530Z,71.20
2022-09-16T20:53:29.276Z,71.30
2022-09-16T20:55:11.165Z,70.70
2022-09-16T20:56:54.242Z,71.30
2022-09-16T20:58:36.732Z,71.30
2022-09-16T21:00:18.626Z,71.30
2022-09-16T21:02:00.387Z,71.30
2022-09-16T21:03:43.144Z,71.30
2022-09-16T21:05:24.850Z,70.90
2022-09-16T21:07:06.595Z,71.40
2022-09-16T21:08:52.150Z,71.30
2022-09-16T21:10:33.884Z,71.40
2022-09-16T21:12:16.945Z,71.40
2022-09-16T21:14:00.090Z,71.40
2022-09-16T21:15:41.826Z,64.50
2022-09-16T21:17:23.622Z,65.70
2022-09-16T21:19:07.325Z,68.90
2022-09-16T21:20:49.030Z,70.40
2022-09-16T21:22:30.734Z,70.30
2022-09-16T21:24:12.996Z,70.40
2022-09-16T21:25:54.789Z,69.90
2022-09-16T21:27:37.854Z,70.50
2022-09-16T21:29:19.718Z,70.40
2022-09-16T21:31:03.230Z,70.50
2022-09-16T21:32:44.974Z,70.50
2022-09-16T21:34:26.849Z,70.50
2022-09-16T21:36:10.831Z,69.90
2022-09-16T21:37:52.563Z,70.60
2022-09-16T21:39:34.367Z,70.50
2022-09-16T21:41:18.214Z,70.60
2022-09-16T21:43:01.270Z,70.70
2022-09-16T21:44:43.427Z,70.70
2022-09-16T21:46:27.283Z,70.10
2022-09-16T21:48:09.067Z,70.60
2022-09-16T21:49:50.889Z,70.60
2022-09-16T21:51:36.565Z,70.90
2022-09-16T21:53:18.281Z,71.00
2022-09-16T21:55:00.163Z,70.90
2022-09-16T21:56:42.107Z,70.40
2022-09-16T21:58:25.185Z,71.10
2022-09-16T22:00:08.643Z,71.10
2022-09-16T22:01:51.213Z,71.20
2022-09-16T22:03:33.201Z,71.30
2022-09-16T22:05:15.056Z,70.80
2022-09-16T22:06:56.772Z,71.30
2022-09-16T22:08:38.855Z,71.50
2022-09-16T22:10:20.456Z,71.50
2022-09-16T22:12:02.673Z,71.50
2022-09-16T22:13:46.222Z,71.50
2022-09-16T22:15:27.975Z,71.00
2022-09-16T22:17:09.679Z,71.60
2022-09-16T22:18:51.374Z,71.50
2022-09-16T22:20:33.144Z,71.60
2022-09-16T22:22:14.871Z,71.60
2022-09-16T22:23:58.134Z,71.70
2022-09-16T22:25:39.883Z,71.00
2022-09-16T22:27:21.602Z,72.40
2022-09-16T22:29:05.184Z,71.80
2022-09-16T22:30:46.994Z,71.90
2022-09-16T22:32:28.742Z,71.70
2022-09-16T22:34:10.739Z,71.70
2022-09-16T22:35:52.335Z,71.40
2022-09-16T22:37:34.053Z,72.00
2022-09-16T22:39:16.982Z,72.00
2022-09-16T22:40:59.982Z,71.90
2022-09-16T22:42:41.712Z,71.90
2022-09-16T22:44:24.759Z,71.90
2022-09-16T22:46:08.702Z,71.50
2022-09-16T22:47:50.426Z,72.10
2022-09-16T22:49:32.160Z,72.10
2022-09-16T22:51:15.952Z,72.00
2022-09-16T22:52:57.639Z,72.00
2022-09-16T22:54:39.348Z,72.10
2022-09-16T22:56:22.863Z,71.70
2022-09-16T22:58:04.563Z,72.20